Etusivu
METAR-TAF:

METAR-TAF

Lentoasemat :

Namsos, Norja

Leveyspiiri: 64-28N, Pituuspiiri: 011-35E, korkeus merenpinnasta: 0 m

Tämänhetkinen sää

Tämä raportti tehtiin 18 minuuttia sitten, kello 14.20 UTC
Tuuli 7 kn pohjoisesta
Lämpötila 20°C
Kosteus 46%
Ilmanpaine 1007 hPa
Näkyvyys 10 km tai enemmän

METAR: ENNM 151420Z AUTO 36007KT 9999 SCT062/// BKN078/// 20/08 Q1007

Aika: 16:38 (14:38 UTC)

Sääennuste

Tämä raportti tehtiin 38 minuuttia sitten, kello 14.00 UTC
Ennuste voimassa 14. päivästä klo 15 UTC - 14. päivään klo 21 UTC
Tuuli 5 kn eri suunnista
Näkyvyys 10 km tai enemmän
Muutamia pilviä 3000 ft:n korkeudessa, Kasvava cumulus-pilvi.
Hajanaisia pilviä 5500 ft:n korkeudessa
Todennäköisyys 40% :
Ajoittain
14. päivästä klo 15 UTC - 14. päivään klo 18 UTC
Tuuli 10 kn idästä/kaakosta
Hajonneita pilviä 2500 ft:n korkeudessa, Cumulonimbus.
ukkosmyrsky, sadetta,

TAF: ENNM 141400Z 1415/1421 VRB05KT 9999 FEW030TCU SCT055 PROB40 TEMPO 1415/1418 12010KT TSRA BKN025CB

Säähavainnot ja -ennusteet yli 4000 lentoasemalta (METAR- ja TAF-raportit).

Käytössä olevat sääasemat on merkitty karttaan keltaisilla ja punaisilla pisteillä.

Aseta hiiri pisteen päälle nähdäksesi sääaseman nimen.

Klikkaa sitten nähdäksesi säähavainnot ja -ennusteet.

Kartan vaihtaminen: klikkaa mustalla rastilla varustettuja vihreitä pisteitä, niin voit zoomata sisään; viivalla varustettua vihreää pistettä, niin voit zoomata ulos tai vihreitä nuolia, niin pääset viereisille kartoille.


METAR-TAF: